sensor_id;sensor_type;location;lat;lon;timestamp;temperature;humidity
15922;DHT22;8060;50.948;3.146;2023-04-15T05:26:50;9.70;99.90
15922;DHT22;8060;50.948;3.146;2023-04-15T05:29:18;9.70;99.90
15922;DHT22;8060;50.948;3.146;2023-04-15T05:31:47;9.80;99.90
15922;DHT22;8060;50.948;3.146;2023-04-15T05:34:15;9.90;99.90
15922;DHT22;8060;50.948;3.146;2023-04-15T05:36:43;9.90;99.90
15922;DHT22;8060;50.948;3.146;2023-04-15T05:39:11;10.00;99.90
15922;DHT22;8060;50.948;3.146;2023-04-15T05:41:39;10.00;99.90
15922;DHT22;8060;50.948;3.146;2023-04-15T05:44:09;10.00;99.90
15922;DHT22;8060;50.948;3.146;2023-04-15T05:46:37;10.00;99.90
15922;DHT22;8060;50.948;3.146;2023-04-15T05:49:05;10.10;99.90
15922;DHT22;8060;50.948;3.146;2023-04-15T05:51:33;10.10;99.90
15922;DHT22;8060;50.948;3.146;2023-04-15T05:54:02;10.20;99.90
15922;DHT22;8060;50.948;3.146;2023-04-15T05:56:30;10.20;99.90
15922;DHT22;8060;50.948;3.146;2023-04-15T05:58:58;10.20;99.90
15922;DHT22;8060;50.948;3.146;2023-04-15T06:01:29;10.20;99.90
15922;DHT22;8060;50.948;3.146;2023-04-15T06:03:57;10.20;99.90
15922;DHT22;8060;50.948;3.146;2023-04-15T06:06:26;10.20;99.90
15922;DHT22;8060;50.948;3.146;2023-04-15T06:08:54;10.20;99.90
15922;DHT22;8060;50.948;3.146;2023-04-15T06:11:23;10.30;99.90
15922;DHT22;8060;50.948;3.146;2023-04-15T06:13:52;10.30;99.90
15922;DHT22;8060;50.948;3.146;2023-04-15T06:16:20;10.30;99.90
15922;DHT22;8060;50.948;3.146;2023-04-15T06:18:50;10.20;99.90
15922;DHT22;8060;50.948;3.146;2023-04-15T06:21:18;10.30;99.90
15922;DHT22;8060;50.948;3.146;2023-04-15T06:23:46;10.20;99.90
15922;DHT22;8060;50.948;3.146;2023-04-15T06:26:14;10.20;99.90
15922;DHT22;8060;50.948;3.146;2023-04-15T06:28:42;10.20;99.90
15922;DHT22;8060;50.948;3.146;2023-04-15T06:31:10;10.30;99.90
15922;DHT22;8060;50.948;3.146;2023-04-15T06:33:38;10.30;99.90
15922;DHT22;8060;50.948;3.146;2023-04-15T06:36:08;10.40;99.90
15922;DHT22;8060;50.948;3.146;2023-04-15T06:38:36;10.30;99.90
15922;DHT22;8060;50.948;3.146;2023-04-15T06:41:04;10.30;99.90
15922;DHT22;8060;50.948;3.146;2023-04-15T06:43:33;10.30;99.90
15922;DHT22;8060;50.948;3.146;2023-04-15T06:46:01;10.20;99.90
15922;DHT22;8060;50.948;3.146;2023-04-15T06:48:29;10.20;99.90
15922;DHT22;8060;50.948;3.146;2023-04-15T06:50:57;10.20;99.90
15922;DHT22;8060;50.948;3.146;2023-04-15T06:53:26;10.30;99.90
15922;DHT22;8060;50.948;3.146;2023-04-15T06:55:55;10.30;99.90
15922;DHT22;8060;50.948;3.146;2023-04-15T06:58:23;10.30;99.90
15922;DHT22;8060;50.948;3.146;2023-04-15T07:00:51;10.30;99.90
15922;DHT22;8060;50.948;3.146;2023-04-15T07:03:20;10.30;99.90
15922;DHT22;8060;50.948;3.146;2023-04-15T07:05:48;10.30;99.90
15922;DHT22;8060;50.948;3.146;2023-04-15T07:08:16;10.40;99.90
15922;DHT22;8060;50.948;3.146;2023-04-15T07:10:46;10.40;99.90
15922;DHT22;8060;50.948;3.146;2023-04-15T07:13:14;10.40;99.90
15922;DHT22;8060;50.948;3.146;2023-04-15T07:15:43;10.50;99.90
15922;DHT22;8060;50.948;3.146;2023-04-15T07:18:11;10.50;99.90
15922;DHT22;8060;50.948;3.146;2023-04-15T07:20:39;10.50;99.90
15922;DHT22;8060;50.948;3.146;2023-04-15T07:23:08;10.50;99.90
15922;DHT22;8060;50.948;3.146;2023-04-15T07:25:36;10.50;99.90
15922;DHT22;8060;50.948;3.146;2023-04-15T07:28:06;10.60;99.90
15922;DHT22;8060;50.948;3.146;2023-04-15T07:30:34;10.60;99.90
15922;DHT22;8060;50.948;3.146;2023-04-15T07:33:02;10.60;99.90
15922;DHT22;8060;50.948;3.146;2023-04-15T07:35:30;10.60;99.90
15922;DHT22;8060;50.948;3.146;2023-04-15T07:37:59;10.70;99.90
15922;DHT22;8060;50.948;3.146;2023-04-15T07:40:27;10.70;99.90
15922;DHT22;8060;50.948;3.146;2023-04-15T07:42:55;10.80;99.90
15922;DHT22;8060;50.948;3.146;2023-04-15T07:45:25;10.80;99.90
15922;DHT22;8060;50.948;3.146;2023-04-15T07:47:53;10.80;99.90
15922;DHT22;8060;50.948;3.146;2023-04-15T07:50:22;10.90;99.90
15922;DHT22;8060;50.948;3.146;2023-04-15T07:52:50;10.90;99.90
15922;DHT22;8060;50.948;3.146;2023-04-15T07:55:19;10.90;99.90
15922;DHT22;8060;50.948;3.146;2023-04-15T07:57:49;11.00;99.90
15922;DHT22;8060;50.948;3.146;2023-04-15T08:00:17;11.10;99.90
15922;DHT22;8060;50.948;3.146;2023-04-15T08:02:47;11.10;99.90
15922;DHT22;8060;50.948;3.146;2023-04-15T08:05:15;11.30;99.90
15922;DHT22;8060;50.948;3.146;2023-04-15T08:07:44;11.40;99.90
15922;DHT22;8060;50.948;3.146;2023-04-15T08:10:13;11.40;99.90
15922;DHT22;8060;50.948;3.146;2023-04-15T08:12:42;11.50;99.90
15922;DHT22;8060;50.948;3.146;2023-04-15T08:15:10;11.50;99.90
15922;DHT22;8060;50.948;3.146;2023-04-15T08:17:39;11.60;99.90
15922;DHT22;8060;50.948;3.146;2023-04-15T08:20:09;11.60;99.90
15922;DHT22;8060;50.948;3.146;2023-04-15T08:22:38;11.60;99.90
15922;DHT22;8060;50.948;3.146;2023-04-15T08:25:07;11.80;99.90
15922;DHT22;8060;50.948;3.146;2023-04-15T08:27:36;11.80;99.90
15922;DHT22;8060;50.948;3.146;2023-04-15T08:30:05;12.00;99.90
15922;DHT22;8060;50.948;3.146;2023-04-15T08:32:33;12.10;99.90
15922;DHT22;8060;50.948;3.146;2023-04-15T08:35:01;12.10;99.90
15922;DHT22;8060;50.948;3.146;2023-04-15T08:37:31;12.30;99.90
15922;DHT22;8060;50.948;3.146;2023-04-15T08:39:59;12.50;99.90
15922;DHT22;8060;50.948;3.146;2023-04-15T08:42:31;12.70;99.90
15922;DHT22;8060;50.948;3.146;2023-04-15T08:44:59;12.80;99.90
15922;DHT22;8060;50.948;3.146;2023-04-15T08:47:29;12.90;99.90
15922;DHT22;8060;50.948;3.146;2023-04-15T08:49:59;13.00;99.90
15922;DHT22;8060;50.948;3.146;2023-04-15T08:52:31;13.10;99.90
15922;DHT22;8060;50.948;3.146;2023-04-15T08:55:01;13.10;99.90
15922;DHT22;8060;50.948;3.146;2023-04-15T08:57:30;13.10;99.90
15922;DHT22;8060;50.948;3.146;2023-04-15T09:00:01;13.20;99.90
15922;DHT22;8060;50.948;3.146;2023-04-15T09:02:31;13.30;99.90
15922;DHT22;8060;50.948;3.146;2023-04-15T09:05:00;13.30;99.90
15922;DHT22;8060;50.948;3.146;2023-04-15T09:07:33;13.30;99.90
15922;DHT22;8060;50.948;3.146;2023-04-15T09:10:03;13.40;99.90
15922;DHT22;8060;50.948;3.146;2023-04-15T09:12:33;13.50;99.90
15922;DHT22;8060;50.948;3.146;2023-04-15T09:15:06;13.80;99.90
15922;DHT22;8060;50.948;3.146;2023-04-15T09:17:41;14.10;99.90
15922;DHT22;8060;50.948;3.146;2023-04-15T09:20:11;14.10;99.90
15922;DHT22;8060;50.948;3.146;2023-04-15T09:22:42;14.40;99.90
15922;DHT22;8060;50.948;3.146;2023-04-15T09:25:27;14.70;99.90
15922;DHT22;8060;50.948;3.146;2023-04-15T09:27:59;14.90;99.90
15922;DHT22;8060;50.948;3.146;2023-04-15T09:30:28;15.20;99.90
15922;DHT22;8060;50.948;3.146;2023-04-15T09:32:58;15.50;99.90
15922;DHT22;8060;50.948;3.146;2023-04-15T09:35:28;15.70;99.90
15922;DHT22;8060;50.948;3.146;2023-04-15T09:38:03;15.90;99.90
15922;DHT22;8060;50.948;3.146;2023-04-15T09:40:32;16.10;99.90
15922;DHT22;8060;50.948;3.146;2023-04-15T09:43:01;16.10;99.90
15922;DHT22;8060;50.948;3.146;2023-04-15T09:45:30;16.10;99.90
15922;DHT22;8060;50.948;3.146;2023-04-15T09:48:15;16.00;99.90
15922;DHT22;8060;50.948;3.146;2023-04-15T09:50:45;16.20;99.90
15922;DHT22;8060;50.948;3.146;2023-04-15T09:53:18;16.30;99.90
15922;DHT22;8060;50.948;3.146;2023-04-15T09:55:49;16.20;99.90
15922;DHT22;8060;50.948;3.146;2023-04-15T09:58:18;16.30;99.90
15922;DHT22;8060;50.948;3.146;2023-04-15T10:00:47;16.30;99.90
15922;DHT22;8060;50.948;3.146;2023-04-15T10:03:19;16.40;99.90
15922;DHT22;8060;50.948;3.146;2023-04-15T10:05:50;16.60;99.90
15922;DHT22;8060;50.948;3.146;2023-04-15T10:08:21;16.60;99.90
15922;DHT22;8060;50.948;3.146;2023-04-15T10:10:51;16.60;99.90
15922;DHT22;8060;50.948;3.146;2023-04-15T10:13:20;16.60;99.90
15922;DHT22;8060;50.948;3.146;2023-04-15T10:15:50;16.50;99.90
15922;DHT22;8060;50.948;3.146;2023-04-15T10:18:19;16.30;99.90
15922;DHT22;8060;50.948;3.146;2023-04-15T10:20:48;16.10;99.90
15922;DHT22;8060;50.948;3.146;2023-04-15T10:23:17;16.10;99.90
15922;DHT22;8060;50.948;3.146;2023-04-15T10:25:48;16.10;99.90
15922;DHT22;8060;50.948;3.146;2023-04-15T10:28:16;16.20;99.90
15922;DHT22;8060;50.948;3.146;2023-04-15T10:30:44;16.20;99.90
15922;DHT22;8060;50.948;3.146;2023-04-15T10:33:13;16.50;99.90
15922;DHT22;8060;50.948;3.146;2023-04-15T10:35:43;16.70;99.90
15922;DHT22;8060;50.948;3.146;2023-04-15T10:38:33;16.90;99.90
15922;DHT22;8060;50.948;3.146;2023-04-15T10:41:19;17.10;99.90
15922;DHT22;8060;50.948;3.146;2023-04-15T10:43:49;17.10;99.90
15922;DHT22;8060;50.948;3.146;2023-04-15T10:46:21;17.30;99.90
15922;DHT22;8060;50.948;3.146;2023-04-15T10:48:50;17.70;99.90
15922;DHT22;8060;50.948;3.146;2023-04-15T10:51:29;18.20;99.90
15922;DHT22;8060;50.948;3.146;2023-04-15T10:53:58;18.50;99.90
15922;DHT22;8060;50.948;3.146;2023-04-15T10:56:29;18.90;99.90
15922;DHT22;8060;50.948;3.146;2023-04-15T10:59:00;19.20;99.90
15922;DHT22;8060;50.948;3.146;2023-04-15T11:01:51;19.20;99.90
15922;DHT22;8060;50.948;3.146;2023-04-15T11:04:51;19.30;99.90
15922;DHT22;8060;50.948;3.146;2023-04-15T11:07:36;19.60;99.90
15922;DHT22;8060;50.948;3.146;2023-04-15T11:13:15;20.00;99.90
15922;DHT22;8060;50.948;3.146;2023-04-15T11:15:44;20.10;99.90
15922;DHT22;8060;50.948;3.146;2023-04-15T11:18:15;20.40;99.90
15922;DHT22;8060;50.948;3.146;2023-04-15T11:20:45;20.60;99.90
15922;DHT22;8060;50.948;3.146;2023-04-15T11:23:14;20.60;99.90
15922;DHT22;8060;50.948;3.146;2023-04-15T11:25:43;20.70;99.90
15922;DHT22;8060;50.948;3.146;2023-04-15T11:28:13;20.50;99.90
15922;DHT22;8060;50.948;3.146;2023-04-15T11:30:42;20.60;99.90
15922;DHT22;8060;50.948;3.146;2023-04-15T11:33:11;20.70;99.90
15922;DHT22;8060;50.948;3.146;2023-04-15T11:35:40;20.70;99.90
15922;DHT22;8060;50.948;3.146;2023-04-15T11:38:10;21.00;99.90
15922;DHT22;8060;50.948;3.146;2023-04-15T11:40:39;21.30;99.90
15922;DHT22;8060;50.948;3.146;2023-04-15T11:43:10;21.20;99.90
15922;DHT22;8060;50.948;3.146;2023-04-15T11:45:50;21.30;99.90
15922;DHT22;8060;50.948;3.146;2023-04-15T11:48:20;21.60;99.90
15922;DHT22;8060;50.948;3.146;2023-04-15T11:50:52;21.60;99.90
15922;DHT22;8060;50.948;3.146;2023-04-15T11:53:21;21.30;99.90
15922;DHT22;8060;50.948;3.146;2023-04-15T11:55:51;21.40;99.90
15922;DHT22;8060;50.948;3.146;2023-04-15T11:58:21;21.60;99.90
15922;DHT22;8060;50.948;3.146;2023-04-15T12:00:52;21.80;99.90
15922;DHT22;8060;50.948;3.146;2023-04-15T12:03:22;21.80;99.90
15922;DHT22;8060;50.948;3.146;2023-04-15T12:06:21;21.70;99.90
15922;DHT22;8060;50.948;3.146;2023-04-15T12:09:03;21.80;99.90
15922;DHT22;8060;50.948;3.146;2023-04-15T12:11:33;21.90;99.90
15922;DHT22;8060;50.948;3.146;2023-04-15T12:14:07;21.50;99.90
15922;DHT22;8060;50.948;3.146;2023-04-15T12:16:38;20.80;99.90
15922;DHT22;8060;50.948;3.146;2023-04-15T12:19:18;20.70;99.90
15922;DHT22;8060;50.948;3.146;2023-04-15T12:21:49;21.00;99.90
15922;DHT22;8060;50.948;3.146;2023-04-15T12:24:20;21.00;99.90
15922;DHT22;8060;50.948;3.146;2023-04-15T12:26:50;20.80;99.90
15922;DHT22;8060;50.948;3.146;2023-04-15T12:29:19;21.00;99.90
15922;DHT22;8060;50.948;3.146;2023-04-15T12:31:50;21.20;99.90
15922;DHT22;8060;50.948;3.146;2023-04-15T12:34:26;21.10;99.90
15922;DHT22;8060;50.948;3.146;2023-04-15T12:36:56;21.20;99.90
15922;DHT22;8060;50.948;3.146;2023-04-15T12:39:25;21.40;99.90
15922;DHT22;8060;50.948;3.146;2023-04-15T12:41:56;21.60;99.90
15922;DHT22;8060;50.948;3.146;2023-04-15T12:44:26;22.00;99.80
15922;DHT22;8060;50.948;3.146;2023-04-15T12:46:56;22.10;96.40
15922;DHT22;8060;50.948;3.146;2023-04-15T12:49:26;22.10;96.10
15922;DHT22;8060;50.948;3.146;2023-04-15T12:51:57;22.10;95.90
15922;DHT22;8060;50.948;3.146;2023-04-15T12:54:26;22.30;99.00
15922;DHT22;8060;50.948;3.146;2023-04-15T12:56:55;22.50;99.90
15922;DHT22;8060;50.948;3.146;2023-04-15T12:59:23;22.80;99.90
15922;DHT22;8060;50.948;3.146;2023-04-15T13:01:52;22.50;99.90
15922;DHT22;8060;50.948;3.146;2023-04-15T13:04:22;21.90;99.90
15922;DHT22;8060;50.948;3.146;2023-04-15T13:06:50;21.90;99.90
15922;DHT22;8060;50.948;3.146;2023-04-15T13:09:18;22.10;99.90
15922;DHT22;8060;50.948;3.146;2023-04-15T13:11:46;22.00;99.90
15922;DHT22;8060;50.948;3.146;2023-04-15T13:14:14;22.20;99.90
15922;DHT22;8060;50.948;3.146;2023-04-15T13:16:42;22.10;99.90
15922;DHT22;8060;50.948;3.146;2023-04-15T13:19:10;22.30;99.90
15922;DHT22;8060;50.948;3.146;2023-04-15T13:21:40;22.10;99.90
15922;DHT22;8060;50.948;3.146;2023-04-15T13:24:08;21.70;99.90
15922;DHT22;8060;50.948;3.146;2023-04-15T13:26:36;21.70;99.90
15922;DHT22;8060;50.948;3.146;2023-04-15T13:29:04;21.80;99.90
15922;DHT22;8060;50.948;3.146;2023-04-15T13:31:32;21.60;99.90
15922;DHT22;8060;50.948;3.146;2023-04-15T13:34:00;21.60;99.90
15922;DHT22;8060;50.948;3.146;2023-04-15T13:36:29;21.80;99.90
15922;DHT22;8060;50.948;3.146;2023-04-15T13:38:58;21.70;99.90
15922;DHT22;8060;50.948;3.146;2023-04-15T13:41:27;21.70;99.90
15922;DHT22;8060;50.948;3.146;2023-04-15T13:43:55;21.50;99.90
15922;DHT22;8060;50.948;3.146;2023-04-15T13:46:24;21.60;99.90
15922;DHT22;8060;50.948;3.146;2023-04-15T13:48:52;21.80;99.90
15922;DHT22;8060;50.948;3.146;2023-04-15T13:51:20;21.80;99.90
15922;DHT22;8060;50.948;3.146;2023-04-15T13:53:48;21.90;99.90
15922;DHT22;8060;50.948;3.146;2023-04-15T13:56:18;21.70;99.90
15922;DHT22;8060;50.948;3.146;2023-04-15T13:58:47;21.80;99.90
15922;DHT22;8060;50.948;3.146;2023-04-15T14:01:15;21.80;99.90
15922;DHT22;8060;50.948;3.146;2023-04-15T14:03:43;21.60;99.90
15922;DHT22;8060;50.948;3.146;2023-04-15T14:06:12;21.60;99.90
15922;DHT22;8060;50.948;3.146;2023-04-15T14:08:40;21.50;99.90
15922;DHT22;8060;50.948;3.146;2023-04-15T14:11:08;21.10;99.90
15922;DHT22;8060;50.948;3.146;2023-04-15T14:13:38;21.00;99.90
15922;DHT22;8060;50.948;3.146;2023-04-15T14:16:06;21.10;99.90
15922;DHT22;8060;50.948;3.146;2023-04-15T14:18:34;20.90;99.90
15922;DHT22;8060;50.948;3.146;2023-04-15T14:21:04;21.00;99.90
15922;DHT22;8060;50.948;3.146;2023-04-15T14:23:32;21.00;99.90
15922;DHT22;8060;50.948;3.146;2023-04-15T14:26:00;21.20;99.90
15922;DHT22;8060;50.948;3.146;2023-04-15T14:28:29;21.20;99.90
15922;DHT22;8060;50.948;3.146;2023-04-15T14:30:59;20.80;99.90
15922;DHT22;8060;50.948;3.146;2023-04-15T14:33:27;20.50;99.90
15922;DHT22;8060;50.948;3.146;2023-04-15T14:35:55;20.20;99.90
15922;DHT22;8060;50.948;3.146;2023-04-15T14:38:23;20.00;99.90
15922;DHT22;8060;50.948;3.146;2023-04-15T14:40:51;19.80;99.90
15922;DHT22;8060;50.948;3.146;2023-04-15T14:43:19;19.80;99.90
15922;DHT22;8060;50.948;3.146;2023-04-15T14:45:47;19.80;99.90
15922;DHT22;8060;50.948;3.146;2023-04-15T14:48:18;19.80;99.90
15922;DHT22;8060;50.948;3.146;2023-04-15T14:50:46;19.80;99.90
15922;DHT22;8060;50.948;3.146;2023-04-15T14:53:14;19.70;99.90
15922;DHT22;8060;50.948;3.146;2023-04-15T14:55:43;19.40;99.90
15922;DHT22;8060;50.948;3.146;2023-04-15T14:58:11;19.10;99.90
15922;DHT22;8060;50.948;3.146;2023-04-15T15:00:39;19.00;99.90
15922;DHT22;8060;50.948;3.146;2023-04-15T15:03:10;19.00;99.90
15922;DHT22;8060;50.948;3.146;2023-04-15T15:05:41;18.80;99.90
15922;DHT22;8060;50.948;3.146;2023-04-15T15:08:10;18.60;99.90
15922;DHT22;8060;50.948;3.146;2023-04-15T15:10:39;18.30;99.90
15922;DHT22;8060;50.948;3.146;2023-04-15T15:13:16;18.20;99.90
15922;DHT22;8060;50.948;3.146;2023-04-15T15:15:44;17.90;99.90
15922;DHT22;8060;50.948;3.146;2023-04-15T15:18:12;17.70;99.90
15922;DHT22;8060;50.948;3.146;2023-04-15T15:20:42;17.90;99.90
15922;DHT22;8060;50.948;3.146;2023-04-15T15:23:10;17.90;99.90
15922;DHT22;8060;50.948;3.146;2023-04-15T15:25:38;18.00;99.90
15922;DHT22;8060;50.948;3.146;2023-04-15T15:28:06;17.90;99.90
15922;DHT22;8060;50.948;3.146;2023-04-15T15:30:34;17.80;99.90
15922;DHT22;8060;50.948;3.146;2023-04-15T15:33:02;17.80;99.90
15922;DHT22;8060;50.948;3.146;2023-04-15T15:35:31;17.70;99.90
15922;DHT22;8060;50.948;3.146;2023-04-15T15:38:00;17.80;99.90
15922;DHT22;8060;50.948;3.146;2023-04-15T15:40:29;17.60;99.90
15922;DHT22;8060;50.948;3.146;2023-04-15T15:42:57;17.50;99.90
15922;DHT22;8060;50.948;3.146;2023-04-15T15:45:25;17.40;99.90
15922;DHT22;8060;50.948;3.146;2023-04-15T15:47:53;17.30;99.90
15922;DHT22;8060;50.948;3.146;2023-04-15T15:50:22;17.20;99.90
15922;DHT22;8060;50.948;3.146;2023-04-15T15:52:50;17.00;99.90
15922;DHT22;8060;50.948;3.146;2023-04-15T15:55:20;17.00;99.90
15922;DHT22;8060;50.948;3.146;2023-04-15T15:57:49;17.00;99.90
15922;DHT22;8060;50.948;3.146;2023-04-15T16:00:17;17.00;99.90
15922;DHT22;8060;50.948;3.146;2023-04-15T16:02:45;16.90;99.90
15922;DHT22;8060;50.948;3.146;2023-04-15T16:05:16;16.90;99.90
15922;DHT22;8060;50.948;3.146;2023-04-15T16:07:44;16.80;99.90
15922;DHT22;8060;50.948;3.146;2023-04-15T16:10:12;16.80;99.90
15922;DHT22;8060;50.948;3.146;2023-04-15T16:12:42;16.80;99.90
15922;DHT22;8060;50.948;3.146;2023-04-15T16:15:11;16.70;99.90
15922;DHT22;8060;50.948;3.146;2023-04-15T16:17:39;16.40;99.90
15922;DHT22;8060;50.948;3.146;2023-04-15T16:20:08;16.20;99.90
15922;DHT22;8060;50.948;3.146;2023-04-15T16:22:37;16.20;99.90
15922;DHT22;8060;50.948;3.146;2023-04-15T16:25:06;16.10;99.90
15922;DHT22;8060;50.948;3.146;2023-04-15T16:27:34;16.10;99.90
15922;DHT22;8060;50.948;3.146;2023-04-15T16:30:24;16.10;99.90
15922;DHT22;8060;50.948;3.146;2023-04-15T16:32:52;16.10;99.90
15922;DHT22;8060;50.948;3.146;2023-04-15T16:35:20;16.00;99.90
15922;DHT22;8060;50.948;3.146;2023-04-15T16:37:48;16.00;99.90
15922;DHT22;8060;50.948;3.146;2023-04-15T16:40:19;16.00;99.90
15922;DHT22;8060;50.948;3.146;2023-04-15T16:42:47;16.00;99.90
15922;DHT22;8060;50.948;3.146;2023-04-15T16:45:16;16.00;99.90
15922;DHT22;8060;50.948;3.146;2023-04-15T16:47:45;15.90;99.90
15922;DHT22;8060;50.948;3.146;2023-04-15T16:50:14;15.90;99.90
15922;DHT22;8060;50.948;3.146;2023-04-15T16:52:42;15.80;99.90
15922;DHT22;8060;50.948;3.146;2023-04-15T16:55:10;15.70;99.90
15922;DHT22;8060;50.948;3.146;2023-04-15T16:57:38;15.70;99.90
15922;DHT22;8060;50.948;3.146;2023-04-15T17:00:26;15.50;99.90
15922;DHT22;8060;50.948;3.146;2023-04-15T17:02:56;15.20;99.90
15922;DHT22;8060;50.948;3.146;2023-04-15T17:05:24;15.20;99.90
15922;DHT22;8060;50.948;3.146;2023-04-15T17:07:53;15.20;99.90
15922;DHT22;8060;50.948;3.146;2023-04-15T17:10:21;15.10;99.90
15922;DHT22;8060;50.948;3.146;2023-04-15T17:12:50;15.00;99.90
15922;DHT22;8060;50.948;3.146;2023-04-15T17:15:18;15.00;99.90
15922;DHT22;8060;50.948;3.146;2023-04-15T17:17:46;15.10;99.90
15922;DHT22;8060;50.948;3.146;2023-04-15T17:20:16;15.00;99.90
15922;DHT22;8060;50.948;3.146;2023-04-15T17:22:44;15.00;99.90
15922;DHT22;8060;50.948;3.146;2023-04-15T17:25:13;14.80;99.90
15922;DHT22;8060;50.948;3.146;2023-04-15T17:27:41;14.70;99.90
15922;DHT22;8060;50.948;3.146;2023-04-15T17:30:09;14.70;99.90
15922;DHT22;8060;50.948;3.146;2023-04-15T17:32:37;14.70;99.90
15922;DHT22;8060;50.948;3.146;2023-04-15T17:35:07;14.50;99.90
15922;DHT22;8060;50.948;3.146;2023-04-15T17:37:36;14.40;99.90
15922;DHT22;8060;50.948;3.146;2023-04-15T17:40:05;14.30;99.90
15922;DHT22;8060;50.948;3.146;2023-04-15T17:42:34;14.20;99.90
15922;DHT22;8060;50.948;3.146;2023-04-15T17:45:03;14.00;99.90
15922;DHT22;8060;50.948;3.146;2023-04-15T17:47:31;13.90;99.90
15922;DHT22;8060;50.948;3.146;2023-04-15T17:50:00;14.00;99.90
15922;DHT22;8060;50.948;3.146;2023-04-15T17:52:28;13.90;99.90
15922;DHT22;8060;50.948;3.146;2023-04-15T17:54:57;13.80;99.90
15922;DHT22;8060;50.948;3.146;2023-04-15T17:57:25;13.70;99.90
15922;DHT22;8060;50.948;3.146;2023-04-15T17:59:53;13.70;99.90
15922;DHT22;8060;50.948;3.146;2023-04-15T18:02:21;13.60;99.90
15922;DHT22;8060;50.948;3.146;2023-04-15T18:04:50;13.50;99.90
15922;DHT22;8060;50.948;3.146;2023-04-15T18:07:18;13.60;99.90
15922;DHT22;8060;50.948;3.146;2023-04-15T18:09:46;13.60;99.90
